This is the latest recevied weather packets stored in our database for station/object KF4WSW-13. If no packets are shown the sender has not sent any weather packets the latest 10 day(s).
| Time | Temp. | Humidity | Pressure | Rain* | Wind** | Luminosity | Snow |
|---|---|---|---|---|---|---|---|
| 1777735228 | 29.44° C | 77% | 1009.8 hPa | 0 mm | - | 583 W/m² | - |
| 1777734925 | 28.89° C | 76% | 1009.8 hPa | 0 mm | - | 623 W/m² | - |
| 1777734622 | 29.44° C | 75% | 1009.7 hPa | 0 mm | - | 514 W/m² | - |
| 1777734320 | 28.89° C | 76% | 1009.7 hPa | 0 mm | - | 570 W/m² | - |
| 1777734015 | 29.44° C | 76% | 1009.7 hPa | 0 mm | - | 550 W/m² | - |
| 1777733712 | 28.89° C | 76% | 1009.3 hPa | 0 mm | - | 661 W/m² | - |
| 1777733409 | 28.33° C | 79% | 1009 hPa | 0 mm | - | 635 W/m² | - |
| 1777733105 | 28.89° C | 77% | 1009.2 hPa | 0 mm | - | 631 W/m² | - |
| 1777732801 | 28.33° C | 78% | 1009.2 hPa | 0 mm | - | 564 W/m² | - |
| 1777732498 | 28.89° C | 78% | 1009.3 hPa | 0 mm | - | 464 W/m² | - |
| 1777732196 | 27.78° C | 79% | 1009.1 hPa | 0 mm | - | 519 W/m² | - |
| 1777731893 | 27.78° C | 81% | 1009.3 hPa | 0 mm | - | 394 W/m² | - |
| 1777731590 | 27.22° C | 82% | 1009.1 hPa | 0 mm | - | 218 W/m² | - |
| 1777731288 | 27.78° C | 81% | 1009.2 hPa | 0 mm | - | 263 W/m² | - |
| 1777730985 | 27.22° C | 81% | 1009.3 hPa | 0 mm | - | 343 W/m² | - |
| 1777730683 | 27.22° C | 82% | 1009.3 hPa | 0 mm | - | 312 W/m² | - |
| 1777730379 | 27.22° C | 82% | 1009.4 hPa | 0 mm | - | 286 W/m² | - |
| 1777730075 | 27.22° C | 82% | 1009.4 hPa | 0 mm | - | 323 W/m² | - |
| 1777729771 | 26.67° C | 83% | 1009.2 hPa | 0 mm | - | 316 W/m² | - |
| 1777729469 | 26.67° C | 84% | 1009.4 hPa | 0 mm | - | 226 W/m² | - |
| 1777729165 | 26.67° C | 84% | 1009.1 hPa | 0 mm | - | 234 W/m² | - |
| 1777728862 | 26.67° C | 84% | 1009 hPa | 0 mm | - | 202 W/m² | - |
| 1777728559 | 26.67° C | 82% | 1009.1 hPa | 0 mm | - | 147 W/m² | - |
| 1777728256 | 26.67° C | 82% | 1008.8 hPa | 0 mm | - | 201 W/m² | - |
| 1777727953 | 27.22° C | 81% | 1008.6 hPa | 0 mm | - | 236 W/m² | - |
* Rain latest hour (hover to see other rain measurements)
** Current wind speed in m/s (hover to see current wind gust speed)